Time;durP1;ratioP1;P1;durP2;ratioP2;P2;SDS_P1;SDS_P2;PMS_P1;PMS_P2;Temp;Humidity;BMP_temperature;BMP_pressure;BME280_temperature;BME280_humidity;BME280_pressure;Samples;Min_cycle;Max_cycle;Signal;HPM_P1;HPM_P2
2021/05/25 00:01:52;;;;;;;4.13;1.40;;;;;;;;;;5100363;28;20755;-82
2021/05/25 00:04:18;;;;;;;3.40;1.25;;;;;;;;;;5101958;28;20359;-83
2021/05/25 00:06:44;;;;;;;2.25;1.20;;;;;;;;;;5099710;28;20729;-79
2021/05/25 00:09:11;;;;;;;3.50;1.40;;;;;;;;;;5100743;28;20713;-81
2021/05/25 00:11:37;;;;;;;3.58;1.40;;;;;;;;;;5101473;28;20374;-79
2021/05/25 00:14:04;;;;;;;2.20;1.40;;;;;;;;;;5099356;28;21425;-82
2021/05/25 00:16:30;;;;;;;3.55;1.48;;;;;;;;;;5081603;28;20375;-81
2021/05/25 00:18:56;;;;;;;5.25;1.60;;;;;;;;;;5101255;28;20407;-84
2021/05/25 00:21:22;;;;;;;2.10;1.40;;;;;;;;;;5100697;28;20369;-83
2021/05/25 00:23:48;;;;;;;2.70;1.40;;;;;;;;;;5092724;28;20383;-86
2021/05/25 00:26:14;;;;;;;4.28;1.42;;;;;;;;;;5091870;28;20436;-82
2021/05/25 00:28:41;;;;;;;3.25;1.42;;;;;;;;;;5110315;28;20657;-82
2021/05/25 00:31:07;;;;;;;2.55;1.40;;;;;;;;;;5111438;28;20375;-78
2021/05/25 00:33:33;;;;;;;3.80;1.50;;;;;;;;;;5111265;28;20394;-84
2021/05/25 00:35:59;;;;;;;2.97;1.55;;;;;;;;;;5110838;28;20462;-84
2021/05/25 00:38:25;;;;;;;3.58;1.40;;;;;;;;;;5111067;28;20404;-84
2021/05/25 00:40:51;;;;;;;3.20;1.52;;;;;;;;;;5092734;28;20375;-81
2021/05/25 00:43:17;;;;;;;4.05;1.42;;;;;;;;;;5110839;28;20358;-82
2021/05/25 00:45:43;;;;;;;4.40;1.63;;;;;;;;;;5110473;28;20414;-83
2021/05/25 00:48:09;;;;;;;3.50;1.70;;;;;;;;;;5110866;28;20374;-81
2021/05/25 00:50:37;;;;;;;4.35;1.60;;;;;;;;;;5110353;28;20359;-83
2021/05/25 00:53:04;;;;;;;3.55;1.50;;;;;;;;;;5092359;28;20399;-81
2021/05/25 00:55:36;;;;;;;4.25;1.50;;;;;;;;;;5110497;28;20378;-82
2021/05/25 00:58:03;;;;;;;3.08;1.80;;;;;;;;;;5110303;28;20394;-82
2021/05/25 01:00:31;;;;;;;2.65;1.95;;;;;;;;;;5110494;28;20389;-82
2021/05/25 01:02:57;;;;;;;3.25;1.50;;;;;;;;;;5091950;28;20386;-83
2021/05/25 01:05:23;;;;;;;4.35;2.00;;;;;;;;;;5109818;28;20367;-80
2021/05/25 01:07:50;;;;;;;3.38;1.70;;;;;;;;;;5110149;28;20355;-85
2021/05/25 01:10:20;;;;;;;2.27;1.80;;;;;;;;;;5110326;28;20494;-82
2021/05/25 01:12:59;;;;;;;5.07;1.65;;;;;;;;;;5110273;28;20378;-83
2021/05/25 01:15:25;;;;;;;2.40;1.83;;;;;;;;;;5109974;28;20366;-84
2021/05/25 01:17:53;;;;;;;3.70;1.88;;;;;;;;;;5109733;28;20358;-83
2021/05/25 01:20:20;;;;;;;4.35;1.95;;;;;;;;;;5091545;28;20511;-83
2021/05/25 01:22:46;;;;;;;3.83;1.88;;;;;;;;;;5109938;28;20837;-81
2021/05/25 01:25:15;;;;;;;3.00;2.03;;;;;;;;;;5109506;28;20357;-82
2021/05/25 01:27:41;;;;;;;3.08;2.00;;;;;;;;;;5110047;28;20431;-83
2021/05/25 01:30:08;;;;;;;7.72;1.95;;;;;;;;;;5091525;28;20363;-79
2021/05/25 01:32:34;;;;;;;5.95;1.90;;;;;;;;;;5110043;28;20367;-82
2021/05/25 01:35:00;;;;;;;4.13;2.00;;;;;;;;;;5091265;28;20906;-84
2021/05/25 01:37:26;;;;;;;5.50;2.45;;;;;;;;;;5109529;28;20363;-82
2021/05/25 01:39:55;;;;;;;4.05;1.95;;;;;;;;;;5109667;28;20365;-81
2021/05/25 01:42:22;;;;;;;2.80;1.90;;;;;;;;;;5091437;28;20378;-81
2021/05/25 01:44:48;;;;;;;2.83;2.03;;;;;;;;;;5109500;28;20387;-82
2021/05/25 01:47:17;;;;;;;3.10;1.98;;;;;;;;;;5109211;28;20366;-82
2021/05/25 01:49:43;;;;;;;3.70;1.90;;;;;;;;;;5109784;28;20480;-81
2021/05/25 01:52:10;;;;;;;4.38;1.77;;;;;;;;;;5109585;28;20841;-81
2021/05/25 01:54:36;;;;;;;3.28;1.90;;;;;;;;;;5091197;28;20519;-80
2021/05/25 01:57:02;;;;;;;3.83;2.17;;;;;;;;;;5109269;28;20507;-84
2021/05/25 01:59:30;;;;;;;4.80;2.40;;;;;;;;;;5091232;28;20387;-80
2021/05/25 02:01:56;;;;;;;3.53;2.08;;;;;;;;;;5109239;28;20458;-82
2021/05/25 02:04:22;;;;;;;4.63;2.25;;;;;;;;;;5109381;28;20418;-80
2021/05/25 02:06:48;;;;;;;3.83;2.20;;;;;;;;;;5108680;28;20375;-84
2021/05/25 02:09:14;;;;;;;3.30;2.20;;;;;;;;;;5109259;28;20407;-81
2021/05/25 02:11:39;;;;;;;3.43;2.03;;;;;;;;;;5109393;28;20374;-82
2021/05/25 02:14:05;;;;;;;4.30;2.50;;;;;;;;;;5109161;28;20394;-84
2021/05/25 02:16:31;;;;;;;2.87;2.13;;;;;;;;;;5090494;28;20421;-83
2021/05/25 02:18:57;;;;;;;2.58;1.90;;;;;;;;;;5108950;28;20389;-81
2021/05/25 02:21:23;;;;;;;4.18;2.20;;;;;;;;;;5091141;28;20370;-81
2021/05/25 02:23:50;;;;;;;3.08;2.25;;;;;;;;;;5090760;28;20396;-82
2021/05/25 02:26:16;;;;;;;4.32;2.47;;;;;;;;;;5108985;28;20371;-82
2021/05/25 02:28:43;;;;;;;3.90;2.40;;;;;;;;;;5109141;28;20370;-83
2021/05/25 02:31:09;;;;;;;6.28;2.60;;;;;;;;;;5092521;28;20366;-84
2021/05/25 02:33:35;;;;;;;4.00;2.50;;;;;;;;;;5112983;28;20425;-82
2021/05/25 02:36:01;;;;;;;5.60;2.85;;;;;;;;;;5112808;28;20371;-82
2021/05/25 02:38:28;;;;;;;5.45;2.63;;;;;;;;;;5094911;28;20721;-81
2021/05/25 02:40:54;;;;;;;5.45;3.13;;;;;;;;;;5113178;28;20363;-79
2021/05/25 02:43:24;;;;;;;5.47;3.10;;;;;;;;;;5113029;28;20367;-83
2021/05/25 02:45:51;;;;;;;5.82;3.20;;;;;;;;;;5094453;28;20401;-84
2021/05/25 02:48:17;;;;;;;4.00;2.63;;;;;;;;;;5094365;28;20465;-81
2021/05/25 02:50:43;;;;;;;4.90;2.93;;;;;;;;;;5113233;28;20465;-84
2021/05/25 02:53:09;;;;;;;5.97;2.80;;;;;;;;;;5112635;28;20868;-80
2021/05/25 02:55:36;;;;;;;5.68;2.90;;;;;;;;;;5112442;28;20405;-81
2021/05/25 02:58:03;;;;;;;4.75;2.83;;;;;;;;;;5112946;28;20908;-81
2021/05/25 03:00:31;;;;;;;3.42;2.40;;;;;;;;;;5113084;28;20363;-80
2021/05/25 03:02:58;;;;;;;3.65;2.72;;;;;;;;;;5112380;28;20795;-80
2021/05/25 03:05:25;;;;;;;4.93;2.60;;;;;;;;;;5094732;28;20371;-82
2021/05/25 03:07:51;;;;;;;4.28;2.72;;;;;;;;;;5112382;28;20419;-83
2021/05/25 03:10:18;;;;;;;5.10;2.70;;;;;;;;;;5112637;28;20386;-79
2021/05/25 03:12:45;;;;;;;4.20;2.58;;;;;;;;;;5112494;28;20848;-83
2021/05/25 03:15:13;;;;;;;4.27;2.77;;;;;;;;;;5112065;28;20375;-81
2021/05/25 03:17:39;;;;;;;4.60;2.57;;;;;;;;;;5112533;28;20363;-83
2021/05/25 03:20:06;;;;;;;3.53;2.53;;;;;;;;;;5093733;28;20402;-82
2021/05/25 03:22:32;;;;;;;6.53;2.80;;;;;;;;;;5112375;28;20359;-81
2021/05/25 03:24:58;;;;;;;3.40;2.90;;;;;;;;;;5112233;28;20867;-81
2021/05/25 03:27:24;;;;;;;4.57;2.83;;;;;;;;;;5112186;28;20390;-83
2021/05/25 03:29:50;;;;;;;4.32;2.80;;;;;;;;;;5111871;28;20402;-82
2021/05/25 03:32:16;;;;;;;3.40;2.40;;;;;;;;;;5093604;28;20524;-81
2021/05/25 03:34:42;;;;;;;5.30;2.88;;;;;;;;;;5111787;28;20485;-81
2021/05/25 03:37:08;;;;;;;4.00;2.38;;;;;;;;;;5093469;28;20367;-80
2021/05/25 03:39:34;;;;;;;3.63;2.53;;;;;;;;;;5112167;28;20370;-85
2021/05/25 03:42:00;;;;;;;3.75;2.60;;;;;;;;;;5111698;28;20436;-83
2021/05/25 03:44:27;;;;;;;3.88;2.38;;;;;;;;;;5093382;28;20371;-81
2021/05/25 03:46:53;;;;;;;3.05;2.30;;;;;;;;;;5111363;28;20370;-80
2021/05/25 03:49:19;;;;;;;4.30;2.53;;;;;;;;;;5111968;28;20367;-81
2021/05/25 03:51:45;;;;;;;4.53;2.60;;;;;;;;;;5093192;28;20887;-81
2021/05/25 03:54:35;;;;;;;4.05;2.78;;;;;;;;;;5111635;28;20402;-82
2021/05/25 03:59:33;;;;;;;4.82;2.90;;;;;;;;;;5112095;28;20379;-83
2021/05/25 04:01:59;;;;;;;3.72;2.80;;;;;;;;;;5093385;28;20402;-82
2021/05/25 04:04:25;;;;;;;4.00;2.67;;;;;;;;;;5093870;28;20406;-82
2021/05/25 04:06:51;;;;;;;5.63;3.00;;;;;;;;;;5111295;28;20452;-82
2021/05/25 04:09:17;;;;;;;4.65;2.78;;;;;;;;;;5111783;28;20370;-82
2021/05/25 04:11:43;;;;;;;4.75;2.60;;;;;;;;;;5111009;28;20358;-81
2021/05/25 04:14:09;;;;;;;4.43;2.42;;;;;;;;;;5093279;28;20872;-84
2021/05/25 04:16:35;;;;;;;4.30;2.50;;;;;;;;;;5111219;28;20401;-81
2021/05/25 04:19:01;;;;;;;3.53;2.28;;;;;;;;;;5093328;28;20394;-83
2021/05/25 04:21:28;;;;;;;3.50;2.42;;;;;;;;;;5111513;28;20825;-82
2021/05/25 04:23:53;;;;;;;3.40;2.35;;;;;;;;;;5111567;28;20398;-81
2021/05/25 04:26:19;;;;;;;2.80;2.10;;;;;;;;;;5111295;28;20421;-83
2021/05/25 04:28:45;;;;;;;3.42;2.30;;;;;;;;;;5111147;28;20392;-80
2021/05/25 04:31:11;;;;;;;3.53;2.20;;;;;;;;;;5111157;28;21086;-80
2021/05/25 04:33:37;;;;;;;4.03;1.80;;;;;;;;;;5111220;28;20398;-83
2021/05/25 04:36:04;;;;;;;3.72;1.83;;;;;;;;;;5092574;28;20383;-82
2021/05/25 04:38:30;;;;;;;3.65;1.73;;;;;;;;;;5092936;28;20393;-81
2021/05/25 04:40:56;;;;;;;3.03;1.70;;;;;;;;;;5092887;28;20379;-80
2021/05/25 04:43:22;;;;;;;2.42;1.73;;;;;;;;;;5111293;28;20375;-85
2021/05/25 04:45:48;;;;;;;4.78;1.70;;;;;;;;;;5111025;28;20431;-83
2021/05/25 04:48:14;;;;;;;2.92;1.50;;;;;;;;;;5111040;28;20367;-82
2021/05/25 04:50:40;;;;;;;1.75;1.40;;;;;;;;;;5111506;28;20358;-85
2021/05/25 04:53:06;;;;;;;2.65;1.40;;;;;;;;;;5091949;28;20880;-81
2021/05/25 04:55:33;;;;;;;1.80;1.33;;;;;;;;;;5110432;28;20367;-81
2021/05/25 04:57:59;;;;;;;2.60;1.50;;;;;;;;;;5110892;28;20389;-82
2021/05/25 05:00:27;;;;;;;2.40;1.50;;;;;;;;;;5110839;28;20362;-82
2021/05/25 05:02:55;;;;;;;3.13;1.65;;;;;;;;;;5110545;28;20868;-82
2021/05/25 05:05:21;;;;;;;2.07;1.43;;;;;;;;;;5092214;28;20366;-82
2021/05/25 05:07:48;;;;;;;2.40;1.40;;;;;;;;;;5110517;28;20363;-83
2021/05/25 05:10:14;;;;;;;2.15;1.50;;;;;;;;;;5110988;28;20375;-83
2021/05/25 05:12:40;;;;;;;1.73;1.40;;;;;;;;;;5110889;28;20449;-82
2021/05/25 05:15:06;;;;;;;3.38;1.63;;;;;;;;;;5110277;28;20409;-79
2021/05/25 05:17:32;;;;;;;2.80;1.67;;;;;;;;;;5110422;28;20421;-81
2021/05/25 05:19:58;;;;;;;4.55;1.50;;;;;;;;;;5110709;28;20427;-81
2021/05/25 05:22:24;;;;;;;3.43;1.90;;;;;;;;;;5110506;28;20771;-81
2021/05/25 05:24:51;;;;;;;3.67;1.48;;;;;;;;;;5092266;28;20382;-81
2021/05/25 05:27:17;;;;;;;3.53;1.65;;;;;;;;;;5110589;28;20370;-85
2021/05/25 05:29:43;;;;;;;2.20;1.50;;;;;;;;;;5091959;28;20374;-81
2021/05/25 05:32:09;;;;;;;3.72;1.88;;;;;;;;;;5110405;28;20371;-83
2021/05/25 05:34:35;;;;;;;2.60;1.60;;;;;;;;;;5110445;28;20387;-82
2021/05/25 05:37:01;;;;;;;3.55;1.50;;;;;;;;;;5091265;28;20415;-82
2021/05/25 05:39:27;;;;;;;2.43;1.40;;;;;;;;;;5092293;28;20718;-84
2021/05/25 05:41:53;;;;;;;2.60;1.30;;;;;;;;;;5109988;28;20375;-82
2021/05/25 05:44:19;;;;;;;2.83;1.30;;;;;;;;;;5110230;28;20374;-84
2021/05/25 05:46:45;;;;;;;2.40;1.30;;;;;;;;;;5109726;28;20382;-84
2021/05/25 05:49:11;;;;;;;1.90;1.23;;;;;;;;;;5109907;28;20367;-79
2021/05/25 05:51:37;;;;;;;4.22;1.42;;;;;;;;;;5109983;28;20416;-85
2021/05/25 05:54:03;;;;;;;2.40;1.42;;;;;;;;;;5091260;28;20865;-83
2021/05/25 05:56:29;;;;;;;3.53;1.50;;;;;;;;;;5109340;28;20371;-81
2021/05/25 05:58:55;;;;;;;2.10;1.40;;;;;;;;;;5109873;28;20805;-82
2021/05/25 06:01:22;;;;;;;2.22;1.30;;;;;;;;;;5109833;28;20461;-81
2021/05/25 06:03:48;;;;;;;1.70;1.20;;;;;;;;;;5109784;28;20845;-79
2021/05/25 06:06:14;;;;;;;3.35;1.30;;;;;;;;;;5109745;28;20363;-83
2021/05/25 06:08:41;;;;;;;3.10;1.50;;;;;;;;;;5105128;28;20421;-85
2021/05/25 06:11:07;;;;;;;2.03;1.20;;;;;;;;;;5092432;28;20372;-87
2021/05/25 06:13:33;;;;;;;3.75;1.35;;;;;;;;;;5093216;28;20394;-84
2021/05/25 06:16:02;;;;;;;2.17;1.30;;;;;;;;;;5091684;28;20372;-82
2021/05/25 06:18:32;;;;;;;2.10;1.30;;;;;;;;;;5110047;28;20491;-84
2021/05/25 06:20:58;;;;;;;2.55;1.33;;;;;;;;;;5091830;28;20432;-85
2021/05/25 06:23:24;;;;;;;2.38;1.20;;;;;;;;;;5091927;28;20375;-88
2021/05/25 06:25:50;;;;;;;3.33;1.27;;;;;;;;;;5105395;28;20444;-81
2021/05/25 06:28:16;;;;;;;4.75;1.33;;;;;;;;;;5089685;28;20779;-89
2021/05/25 06:30:43;;;;;;;2.90;1.13;;;;;;;;;;5071430;28;20384;-80
2021/05/25 06:33:09;;;;;;;2.70;1.10;;;;;;;;;;5089829;28;20368;-85
2021/05/25 06:35:35;;;;;;;1.98;1.27;;;;;;;;;;5090281;28;20388;-89
2021/05/25 06:38:01;;;;;;;2.88;1.40;;;;;;;;;;5090798;28;20885;-86
2021/05/25 06:40:27;;;;;;;2.47;1.10;;;;;;;;;;5091170;28;20367;-86
2021/05/25 06:42:54;;;;;;;2.83;1.37;;;;;;;;;;5104970;28;20428;-84
2021/05/25 06:45:20;;;;;;;2.35;1.20;;;;;;;;;;5076894;28;20483;-83
2021/05/25 06:47:46;;;;;;;3.28;1.27;;;;;;;;;;5083527;28;20389;-83
2021/05/25 06:50:14;;;;;;;2.57;1.40;;;;;;;;;;5108341;28;20414;-83
2021/05/25 06:52:40;;;;;;;2.95;1.40;;;;;;;;;;5091634;28;20370;-84
2021/05/25 06:55:06;;;;;;;4.05;1.00;;;;;;;;;;5109697;28;20799;-84
2021/05/25 06:57:32;;;;;;;3.93;1.23;;;;;;;;;;5109968;28;20365;-84
2021/05/25 06:59:58;;;;;;;2.13;1.10;;;;;;;;;;5109949;28;20453;-87
2021/05/25 07:02:24;;;;;;;2.50;1.27;;;;;;;;;;5091510;28;20548;-85
2021/05/25 07:04:51;;;;;;;2.10;1.02;;;;;;;;;;5110087;28;20371;-80
2021/05/25 07:07:17;;;;;;;2.55;1.25;;;;;;;;;;5109544;28;20375;-83
2021/05/25 07:09:43;;;;;;;2.10;1.10;;;;;;;;;;5109778;28;20363;-84
2021/05/25 07:12:10;;;;;;;2.85;1.10;;;;;;;;;;5109871;28;20359;-83
2021/05/25 07:14:36;;;;;;;2.33;1.30;;;;;;;;;;5109196;28;20900;-89
2021/05/25 07:17:02;;;;;;;1.80;1.00;;;;;;;;;;5110816;28;20428;-80
2021/05/25 07:19:28;;;;;;;2.27;1.00;;;;;;;;;;5112912;28;20375;-83
2021/05/25 07:21:54;;;;;;;3.37;1.40;;;;;;;;;;5095053;28;20381;-85
2021/05/25 07:24:20;;;;;;;2.03;1.00;;;;;;;;;;5113366;28;20431;-84
2021/05/25 07:26:46;;;;;;;1.75;1.10;;;;;;;;;;5112918;28;20367;-84
2021/05/25 07:29:12;;;;;;;2.92;1.15;;;;;;;;;;5095430;28;20452;-88
2021/05/25 07:31:38;;;;;;;3.60;1.40;;;;;;;;;;5094842;28;20370;-84
2021/05/25 07:34:04;;;;;;;2.53;1.07;;;;;;;;;;5113193;28;20401;-83
2021/05/25 07:36:30;;;;;;;2.37;1.20;;;;;;;;;;5113171;28;20515;-78
2021/05/25 07:38:56;;;;;;;2.10;1.20;;;;;;;;;;5113425;28;20461;-84
2021/05/25 07:41:22;;;;;;;3.08;1.20;;;;;;;;;;5113229;28;20916;-86
2021/05/25 07:43:48;;;;;;;2.87;1.00;;;;;;;;;;5114994;28;20385;-77
2021/05/25 07:46:16;;;;;;;2.43;1.17;;;;;;;;;;5106241;28;20457;-77
2021/05/25 07:48:42;;;;;;;2.85;1.27;;;;;;;;;;5125203;28;20434;-76
2021/05/25 07:51:08;;;;;;;3.85;1.58;;;;;;;;;;5124992;28;20366;-79
2021/05/25 07:53:34;;;;;;;3.72;1.30;;;;;;;;;;5102297;28;20395;-83
2021/05/25 07:56:00;;;;;;;2.17;1.30;;;;;;;;;;5093861;28;20363;-77
2021/05/25 07:58:27;;;;;;;3.78;1.40;;;;;;;;;;5096320;28;20431;-79
2021/05/25 08:00:53;;;;;;;2.50;1.02;;;;;;;;;;5113058;28;20432;-88
2021/05/25 08:03:20;;;;;;;5.13;1.50;;;;;;;;;;5112816;28;20427;-89
2021/05/25 08:05:46;;;;;;;2.28;1.20;;;;;;;;;;5113023;28;20374;-86
2021/05/25 08:08:12;;;;;;;2.60;1.38;;;;;;;;;;5112992;28;20363;-85
2021/05/25 08:10:38;;;;;;;3.30;1.40;;;;;;;;;;5094136;28;20378;-87
2021/05/25 08:13:04;;;;;;;2.95;1.35;;;;;;;;;;5112263;28;20812;-85
2021/05/25 08:15:33;;;;;;;3.97;1.15;;;;;;;;;;5112111;28;20458;-85
2021/05/25 08:18:15;;;;;;;2.55;1.25;;;;;;;;;;5112380;28;20392;-84
2021/05/25 08:20:41;;;;;;;2.30;1.30;;;;;;;;;;5112433;28;20453;-89
2021/05/25 08:23:10;;;;;;;3.53;1.30;;;;;;;;;;5111201;28;20454;-86
2021/05/25 08:25:37;;;;;;;3.78;1.38;;;;;;;;;;5092732;28;20381;-86
2021/05/25 08:28:04;;;;;;;3.75;1.13;;;;;;;;;;5093150;28;20432;-88
2021/05/25 08:30:32;;;;;;;2.40;1.00;;;;;;;;;;5108575;28;20367;-79
2021/05/25 08:32:58;;;;;;;2.92;1.08;;;;;;;;;;5110975;28;20387;-83
2021/05/25 08:35:28;;;;;;;2.22;1.10;;;;;;;;;;5111366;28;20431;-84
2021/05/25 08:37:56;;;;;;;2.08;1.15;;;;;;;;;;5111827;28;20375;-80
2021/05/25 08:40:23;;;;;;;1.92;1.10;;;;;;;;;;5093181;28;20390;-80
2021/05/25 08:42:50;;;;;;;2.38;1.05;;;;;;;;;;5111259;28;20452;-84
2021/05/25 08:45:16;;;;;;;2.92;1.23;;;;;;;;;;5111845;28;20365;-83
2021/05/25 08:47:42;;;;;;;4.67;1.23;;;;;;;;;;5093491;28;20362;-88
2021/05/25 08:50:10;;;;;;;2.50;1.07;;;;;;;;;;5111768;28;20374;-85
2021/05/25 08:52:36;;;;;;;1.90;1.25;;;;;;;;;;5111652;28;20473;-81
2021/05/25 08:55:03;;;;;;;1.38;1.02;;;;;;;;;;5111376;28;20390;-84
2021/05/25 08:57:29;;;;;;;2.35;1.20;;;;;;;;;;5111410;28;20404;-87
2021/05/25 08:59:55;;;;;;;2.33;1.20;;;;;;;;;;5111125;28;20374;-84
2021/05/25 09:02:21;;;;;;;1.92;1.17;;;;;;;;;;5093037;28;20880;-83
2021/05/25 09:05:07;;;;;;;1.75;1.10;;;;;;;;;;5106100;28;20378;-83
2021/05/25 09:07:41;;;;;;;1.98;1.17;;;;;;;;;;5092978;28;20469;-80
2021/05/25 09:10:20;;;;;;;1.45;1.10;;;;;;;;;;5111367;27;20375;-91
2021/05/25 09:12:50;;;;;;;3.15;1.27;;;;;;;;;;5099267;28;20369;-84
2021/05/25 09:15:29;;;;;;;4.37;1.30;;;;;;;;;;5110099;27;20391;-84
2021/05/25 09:18:02;;;;;;;3.28;1.38;;;;;;;;;;5111781;27;20382;-88
2021/05/25 09:20:36;;;;;;;1.80;1.30;;;;;;;;;;5097757;28;20377;-88
2021/05/25 09:23:02;;;;;;;1.52;1.15;;;;;;;;;;5091525;28;20445;-84
2021/05/25 09:25:30;;;;;;;2.42;0.90;;;;;;;;;;5090798;28;20387;-80
2021/05/25 09:28:05;;;;;;;3.60;1.20;;;;;;;;;;5091701;28;20479;-84
2021/05/25 09:30:32;;;;;;;2.33;1.00;;;;;;;;;;5086659;28;20404;-84
2021/05/25 09:32:58;;;;;;;3.80;1.23;;;;;;;;;;5072844;28;20393;-81
2021/05/25 09:35:29;;;;;;;4.63;1.13;;;;;;;;;;5090263;28;20382;-82
2021/05/25 09:37:56;;;;;;;3.78;1.00;;;;;;;;;;5095938;28;20450;-82
2021/05/25 09:40:25;;;;;;;2.42;1.02;;;;;;;;;;5077687;27;20725;-85
2021/05/25 09:42:54;;;;;;;1.90;0.98;;;;;;;;;;5098409;27;20392;-89
2021/05/25 09:45:20;;;;;;;2.97;1.08;;;;;;;;;;5120683;27;20459;-81
2021/05/25 09:47:51;;;;;;;1.40;0.80;;;;;;;;;;5107094;28;20382;-83
2021/05/25 09:50:17;;;;;;;0.60;0.60;;;;;;;;;;5091132;28;20426;-86
2021/05/25 09:53:00;;;;;;;1.80;0.70;;;;;;;;;;5108312;27;20441;-79
2021/05/25 09:55:26;;;;;;;1.73;1.00;;;;;;;;;;5089741;28;20387;-83
2021/05/25 09:57:56;;;;;;;2.40;1.17;;;;;;;;;;5108895;28;20960;-85
2021/05/25 10:00:23;;;;;;;2.17;1.30;;;;;;;;;;5109374;28;20361;-84
2021/05/25 10:03:09;;;;;;;3.03;2.20;;;;;;;;;;5091115;28;20446;-82
2021/05/25 10:05:35;;;;;;;3.13;1.90;;;;;;;;;;5090519;28;20879;-80
2021/05/25 10:08:03;;;;;;;4.38;1.33;;;;;;;;;;5090048;28;20726;-82
2021/05/25 10:10:29;;;;;;;1.60;0.90;;;;;;;;;;5088810;28;20886;-83
2021/05/25 10:12:57;;;;;;;1.20;0.90;;;;;;;;;;5114643;27;20424;-83
2021/05/25 10:15:29;;;;;;;1.60;0.80;;;;;;;;;;5112536;27;20445;-84
2021/05/25 10:20:23;;;;;;;2.45;0.88;;;;;;;;;;5105976;28;20375;-83
2021/05/25 10:22:53;;;;;;;1.40;0.75;;;;;;;;;;5087567;28;20391;-84
2021/05/25 10:25:19;;;;;;;1.33;0.85;;;;;;;;;;5103142;28;20386;-85
2021/05/25 10:27:46;;;;;;;1.25;0.80;;;;;;;;;;5105691;28;20358;-84
2021/05/25 10:30:25;;;;;;;1.80;0.70;;;;;;;;;;5086772;28;20398;-86
2021/05/25 10:32:52;;;;;;;1.15;0.70;;;;;;;;;;5087291;28;20391;-81
2021/05/25 10:35:20;;;;;;;2.25;0.98;;;;;;;;;;5106026;28;20495;-81
2021/05/25 10:38:07;;;;;;;1.98;1.00;;;;;;;;;;5084996;28;20375;-85
2021/05/25 10:40:41;;;;;;;2.05;1.10;;;;;;;;;;5094188;28;20822;-82
2021/05/25 10:43:26;;;;;;;3.15;1.00;;;;;;;;;;5069051;28;20754;-83
2021/05/25 10:46:13;;;;;;;2.40;0.90;;;;;;;;;;5081134;28;20392;-83
2021/05/25 10:51:43;;;;;;;1.85;0.70;;;;;;;;;;5107015;28;20370;-83
2021/05/25 10:54:23;;;;;;;3.40;1.30;;;;;;;;;;5084106;28;20439;-83
2021/05/25 10:56:49;;;;;;;3.10;1.02;;;;;;;;;;5095382;28;20376;-82
2021/05/25 10:59:16;;;;;;;2.97;0.80;;;;;;;;;;5084686;28;20722;-80
2021/05/25 11:01:43;;;;;;;2.10;1.10;;;;;;;;;;5104330;28;20386;-82
2021/05/25 11:04:13;;;;;;;2.20;1.10;;;;;;;;;;5113468;27;20461;-82
2021/05/25 11:06:39;;;;;;;2.40;0.85;;;;;;;;;;5076752;28;20919;-81
2021/05/25 11:09:21;;;;;;;1.65;0.80;;;;;;;;;;5095827;28;20387;-78
2021/05/25 11:11:47;;;;;;;1.80;0.88;;;;;;;;;;5116288;27;20377;-85
2021/05/25 11:14:14;;;;;;;2.60;0.77;;;;;;;;;;5117977;27;20409;-82
2021/05/25 11:16:41;;;;;;;1.43;0.90;;;;;;;;;;5109951;27;20374;-81
2021/05/25 11:19:09;;;;;;;2.80;0.93;;;;;;;;;;5093047;28;20391;-82
2021/05/25 11:21:39;;;;;;;1.40;0.80;;;;;;;;;;5091596;28;20474;-82
2021/05/25 11:24:27;;;;;;;2.17;0.60;;;;;;;;;;5092865;28;20881;-83
2021/05/25 11:26:55;;;;;;;1.10;0.68;;;;;;;;;;5095599;27;20392;-83
2021/05/25 11:29:25;;;;;;;1.63;0.60;;;;;;;;;;5091481;28;20374;-84
2021/05/25 11:31:52;;;;;;;1.40;0.65;;;;;;;;;;5101302;28;20374;-82
2021/05/25 11:34:22;;;;;;;0.93;0.65;;;;;;;;;;5091929;28;20396;-81
2021/05/25 11:36:59;;;;;;;1.58;0.77;;;;;;;;;;5079697;28;20378;-81
2021/05/25 11:39:25;;;;;;;2.15;0.82;;;;;;;;;;5100514;28;20379;-81
2021/05/25 11:41:51;;;;;;;1.10;0.60;;;;;;;;;;5109068;28;20444;-83
2021/05/25 11:44:20;;;;;;;1.63;0.55;;;;;;;;;;5109811;28;20973;-81
2021/05/25 11:46:46;;;;;;;2.45;0.93;;;;;;;;;;5107587;28;20369;-83
2021/05/25 11:49:13;;;;;;;3.30;1.10;;;;;;;;;;5091105;28;20413;-85
2021/05/25 11:51:39;;;;;;;2.42;1.10;;;;;;;;;;5104984;28;20477;-80
2021/05/25 11:54:10;;;;;;;2.10;0.88;;;;;;;;;;5107229;28;20497;-82
2021/05/25 11:56:37;;;;;;;1.63;0.70;;;;;;;;;;5104087;27;20410;-84
2021/05/25 11:59:04;;;;;;;2.33;0.80;;;;;;;;;;5106739;28;20783;-82
2021/05/25 12:01:49;;;;;;;1.58;0.63;;;;;;;;;;5107123;28;20394;-82
2021/05/25 12:04:16;;;;;;;5.05;0.90;;;;;;;;;;5106226;28;20374;-80
2021/05/25 12:06:46;;;;;;;2.60;0.97;;;;;;;;;;5097868;28;20382;-82
2021/05/25 12:09:12;;;;;;;2.50;0.90;;;;;;;;;;5106491;28;21917;-82
2021/05/25 12:11:40;;;;;;;2.30;0.77;;;;;;;;;;5103592;28;20488;-87
2021/05/25 12:14:07;;;;;;;1.90;0.80;;;;;;;;;;5083222;28;20416;-84
2021/05/25 12:16:35;;;;;;;1.80;0.90;;;;;;;;;;5089125;28;20470;-83
2021/05/25 12:19:01;;;;;;;3.28;1.10;;;;;;;;;;5088538;28;20414;-83
2021/05/25 12:21:28;;;;;;;1.27;0.90;;;;;;;;;;5088767;28;20386;-84
2021/05/25 12:23:54;;;;;;;2.92;0.80;;;;;;;;;;5088674;28;20473;-82
2021/05/25 12:26:20;;;;;;;2.17;0.95;;;;;;;;;;5088666;28;20473;-84
2021/05/25 12:28:48;;;;;;;1.27;0.70;;;;;;;;;;5107803;28;20371;-88
2021/05/25 12:31:14;;;;;;;3.35;1.10;;;;;;;;;;5105923;28;20379;-78
2021/05/25 12:33:48;;;;;;;2.70;0.90;;;;;;;;;;5104610;28;20471;-83
2021/05/25 12:36:14;;;;;;;3.45;1.50;;;;;;;;;;5105782;28;20379;-87
2021/05/25 12:39:02;;;;;;;1.43;0.90;;;;;;;;;;5106550;28;20378;-84
2021/05/25 12:41:38;;;;;;;1.20;0.73;;;;;;;;;;5106506;28;20363;-83
2021/05/25 12:44:07;;;;;;;1.95;0.80;;;;;;;;;;5088903;28;20414;-85
2021/05/25 12:46:36;;;;;;;1.63;0.80;;;;;;;;;;5088278;28;20438;-80
2021/05/25 12:49:05;;;;;;;4.60;1.10;;;;;;;;;;5105137;28;20500;-87
2021/05/25 12:51:33;;;;;;;3.22;0.63;;;;;;;;;;5084792;28;20451;-80
2021/05/25 12:54:00;;;;;;;0.90;0.50;;;;;;;;;;5088460;28;20959;-84
2021/05/25 12:56:26;;;;;;;1.37;0.60;;;;;;;;;;5086389;28;20375;-80
2021/05/25 12:58:53;;;;;;;1.20;0.57;;;;;;;;;;5086352;28;20936;-83
2021/05/25 13:01:24;;;;;;;1.20;0.70;;;;;;;;;;5103235;28;20380;-86
2021/05/25 13:03:53;;;;;;;2.10;0.70;;;;;;;;;;5107029;27;20386;-85
2021/05/25 13:06:32;;;;;;;1.85;0.40;;;;;;;;;;5092740;27;20713;-81
2021/05/25 13:09:07;;;;;;;2.00;0.47;;;;;;;;;;5117833;27;20429;-83
2021/05/25 13:11:33;;;;;;;0.70;0.40;;;;;;;;;;5105813;27;20393;-82
2021/05/25 13:14:00;;;;;;;0.60;0.52;;;;;;;;;;5109347;27;20403;-81
2021/05/25 13:16:26;;;;;;;1.52;0.65;;;;;;;;;;5090379;28;20803;-80
2021/05/25 13:18:53;;;;;;;2.20;0.90;;;;;;;;;;5107772;28;20389;-83
2021/05/25 13:21:21;;;;;;;2.95;1.70;;;;;;;;;;5106742;28;20773;-84
2021/05/25 13:23:54;;;;;;;4.25;1.65;;;;;;;;;;5109496;27;20431;-79
2021/05/25 13:26:33;;;;;;;0.80;0.60;;;;;;;;;;5121190;27;20395;-83
2021/05/25 13:29:09;;;;;;;1.95;0.50;;;;;;;;;;5104474;27;20375;-86
2021/05/25 13:31:39;;;;;;;1.55;0.60;;;;;;;;;;5102768;28;20374;-81
2021/05/25 13:34:06;;;;;;;1.27;0.70;;;;;;;;;;5085644;28;20402;-80
2021/05/25 13:36:36;;;;;;;2.50;0.80;;;;;;;;;;5090427;28;20396;-87
2021/05/25 13:39:03;;;;;;;1.40;0.77;;;;;;;;;;5107169;28;20385;-83
2021/05/25 13:41:29;;;;;;;2.38;1.08;;;;;;;;;;5104519;28;20420;-85
2021/05/25 13:43:55;;;;;;;1.00;0.60;;;;;;;;;;5094725;28;20874;-85
2021/05/25 13:46:25;;;;;;;3.65;1.13;;;;;;;;;;5087063;28;20391;-85
2021/05/25 13:48:51;;;;;;;4.57;1.00;;;;;;;;;;5108845;27;20458;-82
2021/05/25 13:51:17;;;;;;;1.27;0.80;;;;;;;;;;5108854;27;20378;-83
2021/05/25 13:53:43;;;;;;;0.60;0.60;;;;;;;;;;5105630;28;20979;-84
2021/05/25 13:56:19;;;;;;;1.80;0.50;;;;;;;;;;5106126;28;20378;-82
2021/05/25 13:58:46;;;;;;;0.80;0.68;;;;;;;;;;5105052;28;21066;-81
2021/05/25 14:03:45;;;;;;;0.77;0.50;;;;;;;;;;5103314;28;20379;-81
2021/05/25 14:06:11;;;;;;;3.95;0.70;;;;;;;;;;5087550;28;20481;-82
2021/05/25 14:08:37;;;;;;;2.00;0.60;;;;;;;;;;5105175;28;20481;-86
2021/05/25 14:11:03;;;;;;;1.90;0.57;;;;;;;;;;5107165;28;20374;-81
2021/05/25 14:13:30;;;;;;;1.60;0.80;;;;;;;;;;5076338;28;20386;-85
2021/05/25 14:15:56;;;;;;;1.35;0.57;;;;;;;;;;5100980;28;20375;-82
2021/05/25 14:18:23;;;;;;;1.30;0.50;;;;;;;;;;5114184;28;20393;-81
2021/05/25 14:20:50;;;;;;;1.65;0.60;;;;;;;;;;5111030;28;20999;-82
2021/05/25 14:23:18;;;;;;;0.90;0.60;;;;;;;;;;5103149;28;20803;-82
2021/05/25 14:25:44;;;;;;;1.10;0.60;;;;;;;;;;5105479;28;20449;-83
2021/05/25 14:28:10;;;;;;;2.20;0.55;;;;;;;;;;5112225;27;20387;-85
2021/05/25 14:30:37;;;;;;;1.25;0.70;;;;;;;;;;5111124;28;20451;-85
2021/05/25 14:33:03;;;;;;;6.10;1.05;;;;;;;;;;5111123;28;20377;-84
2021/05/25 14:35:29;;;;;;;6.18;0.98;;;;;;;;;;5112218;28;20425;-82
2021/05/25 14:37:55;;;;;;;1.73;0.40;;;;;;;;;;5111909;28;20840;-85
2021/05/25 14:40:22;;;;;;;4.07;0.77;;;;;;;;;;5094288;27;20405;-82
2021/05/25 14:42:48;;;;;;;2.60;0.68;;;;;;;;;;5111546;28;20408;-83
2021/05/25 14:45:14;;;;;;;1.17;0.85;;;;;;;;;;5095037;28;20402;-85
2021/05/25 14:47:40;;;;;;;3.38;1.48;;;;;;;;;;5112249;28;20371;-82
2021/05/25 14:50:24;;;;;;;6.43;3.17;;;;;;;;;;5113164;28;20498;-84
2021/05/25 14:52:52;;;;;;;1.60;1.10;;;;;;;;;;5097047;28;20451;-82
2021/05/25 14:55:20;;;;;;;0.80;0.60;;;;;;;;;;5094206;28;20425;-86
2021/05/25 14:57:46;;;;;;;7.18;1.33;;;;;;;;;;5094606;28;21009;-84